sensor_id;sensor_type;location;lat;lon;timestamp;temperature;humidity
13328;DHT22;6733;51.044;3.746;2022-09-17T00:01:22;11.50;99.90
13328;DHT22;6733;51.044;3.746;2022-09-17T00:03:50;11.50;99.90
13328;DHT22;6733;51.044;3.746;2022-09-17T00:06:18;11.50;99.90
13328;DHT22;6733;51.044;3.746;2022-09-17T00:08:44;11.50;99.90
13328;DHT22;6733;51.044;3.746;2022-09-17T00:11:28;11.50;99.90
13328;DHT22;6733;51.044;3.746;2022-09-17T00:13:56;11.50;99.90
13328;DHT22;6733;51.044;3.746;2022-09-17T00:16:35;11.60;99.90
13328;DHT22;6733;51.044;3.746;2022-09-17T00:19:03;11.60;99.90
13328;DHT22;6733;51.044;3.746;2022-09-17T00:21:30;11.50;99.90
13328;DHT22;6733;51.044;3.746;2022-09-17T00:23:58;11.40;99.90
13328;DHT22;6733;51.044;3.746;2022-09-17T00:26:25;11.50;99.90
13328;DHT22;6733;51.044;3.746;2022-09-17T00:28:53;11.60;99.90
13328;DHT22;6733;51.044;3.746;2022-09-17T00:31:21;11.50;99.90
13328;DHT22;6733;51.044;3.746;2022-09-17T00:33:48;11.50;99.90
13328;DHT22;6733;51.044;3.746;2022-09-17T00:36:14;11.50;99.90
13328;DHT22;6733;51.044;3.746;2022-09-17T00:38:41;11.50;99.90
13328;DHT22;6733;51.044;3.746;2022-09-17T00:41:07;11.60;99.90
13328;DHT22;6733;51.044;3.746;2022-09-17T00:43:43;11.50;99.90
13328;DHT22;6733;51.044;3.746;2022-09-17T00:48:44;11.50;99.90
13328;DHT22;6733;51.044;3.746;2022-09-17T00:51:13;11.50;99.90
13328;DHT22;6733;51.044;3.746;2022-09-17T00:53:41;11.60;99.90
13328;DHT22;6733;51.044;3.746;2022-09-17T00:56:14;11.70;99.90
13328;DHT22;6733;51.044;3.746;2022-09-17T00:58:42;11.70;99.90
13328;DHT22;6733;51.044;3.746;2022-09-17T01:01:09;11.80;99.90
13328;DHT22;6733;51.044;3.746;2022-09-17T01:03:35;11.80;99.90
13328;DHT22;6733;51.044;3.746;2022-09-17T01:14:56;11.90;99.90
13328;DHT22;6733;51.044;3.746;2022-09-17T01:29:03;11.70;99.90
13328;DHT22;6733;51.044;3.746;2022-09-17T01:31:43;11.80;99.90
13328;DHT22;6733;51.044;3.746;2022-09-17T01:34:29;11.70;99.90
13328;DHT22;6733;51.044;3.746;2022-09-17T01:40:07;11.80;99.90
13328;DHT22;6733;51.044;3.746;2022-09-17T01:42:57;11.80;99.90
13328;DHT22;6733;51.044;3.746;2022-09-17T01:45:48;11.70;99.90
13328;DHT22;6733;51.044;3.746;2022-09-17T01:48:20;11.70;99.90
13328;DHT22;6733;51.044;3.746;2022-09-17T01:50:52;11.60;99.90
13328;DHT22;6733;51.044;3.746;2022-09-17T01:53:23;11.60;99.90
13328;DHT22;6733;51.044;3.746;2022-09-17T01:55:53;11.60;99.90
13328;DHT22;6733;51.044;3.746;2022-09-17T01:58:24;11.50;99.90
13328;DHT22;6733;51.044;3.746;2022-09-17T02:00:57;11.50;99.90
13328;DHT22;6733;51.044;3.746;2022-09-17T02:03:33;11.40;99.90
13328;DHT22;6733;51.044;3.746;2022-09-17T02:06:09;11.50;99.90
13328;DHT22;6733;51.044;3.746;2022-09-17T02:09:04;11.40;99.90
13328;DHT22;6733;51.044;3.746;2022-09-17T02:11:29;11.40;99.90
13328;DHT22;6733;51.044;3.746;2022-09-17T02:14:13;11.40;99.90
13328;DHT22;6733;51.044;3.746;2022-09-17T02:16:49;11.40;99.90
13328;DHT22;6733;51.044;3.746;2022-09-17T02:19:31;11.40;99.90
13328;DHT22;6733;51.044;3.746;2022-09-17T02:22:25;11.30;99.90
13328;DHT22;6733;51.044;3.746;2022-09-17T02:25:19;11.40;99.90
13328;DHT22;6733;51.044;3.746;2022-09-17T02:30:20;11.30;99.90
13328;DHT22;6733;51.044;3.746;2022-09-17T02:32:47;11.30;99.90
13328;DHT22;6733;51.044;3.746;2022-09-17T02:35:20;11.20;99.90
13328;DHT22;6733;51.044;3.746;2022-09-17T02:37:46;11.20;99.90
13328;DHT22;6733;51.044;3.746;2022-09-17T02:40:20;11.20;99.90
13328;DHT22;6733;51.044;3.746;2022-09-17T02:43:12;11.10;99.90
13328;DHT22;6733;51.044;3.746;2022-09-17T02:56:45;11.10;99.90
13328;DHT22;6733;51.044;3.746;2022-09-17T03:01:54;11.10;99.90
13328;DHT22;6733;51.044;3.746;2022-09-17T03:04:22;11.20;99.90
13328;DHT22;6733;51.044;3.746;2022-09-17T03:06:51;11.20;99.90
13328;DHT22;6733;51.044;3.746;2022-09-17T03:09:18;11.30;99.90
13328;DHT22;6733;51.044;3.746;2022-09-17T03:11:44;11.30;99.90
13328;DHT22;6733;51.044;3.746;2022-09-17T03:14:10;11.40;99.90
13328;DHT22;6733;51.044;3.746;2022-09-17T03:16:36;11.40;99.90
13328;DHT22;6733;51.044;3.746;2022-09-17T03:19:03;11.40;99.90
13328;DHT22;6733;51.044;3.746;2022-09-17T03:21:29;11.40;99.90
13328;DHT22;6733;51.044;3.746;2022-09-17T03:23:56;11.50;99.90
13328;DHT22;6733;51.044;3.746;2022-09-17T03:26:25;11.50;99.90
13328;DHT22;6733;51.044;3.746;2022-09-17T03:28:52;11.60;99.90
13328;DHT22;6733;51.044;3.746;2022-09-17T03:31:18;11.60;99.90
13328;DHT22;6733;51.044;3.746;2022-09-17T03:33:44;11.70;99.90
13328;DHT22;6733;51.044;3.746;2022-09-17T03:36:10;11.70;99.90
13328;DHT22;6733;51.044;3.746;2022-09-17T03:38:36;11.70;99.90
13328;DHT22;6733;51.044;3.746;2022-09-17T03:41:05;11.80;99.90
13328;DHT22;6733;51.044;3.746;2022-09-17T03:43:33;11.80;99.90
13328;DHT22;6733;51.044;3.746;2022-09-17T03:45:59;11.80;99.90
13328;DHT22;6733;51.044;3.746;2022-09-17T03:48:25;11.70;99.90
13328;DHT22;6733;51.044;3.746;2022-09-17T03:50:51;11.70;99.90
13328;DHT22;6733;51.044;3.746;2022-09-17T03:53:18;11.70;99.90
13328;DHT22;6733;51.044;3.746;2022-09-17T03:55:44;11.70;99.90
13328;DHT22;6733;51.044;3.746;2022-09-17T03:58:10;11.70;99.90
13328;DHT22;6733;51.044;3.746;2022-09-17T04:00:36;11.70;99.90
13328;DHT22;6733;51.044;3.746;2022-09-17T04:03:04;11.70;99.90
13328;DHT22;6733;51.044;3.746;2022-09-17T04:05:30;11.60;99.90
13328;DHT22;6733;51.044;3.746;2022-09-17T04:07:56;11.60;99.90
13328;DHT22;6733;51.044;3.746;2022-09-17T04:10:22;11.60;99.90
13328;DHT22;6733;51.044;3.746;2022-09-17T04:12:48;11.60;99.90
13328;DHT22;6733;51.044;3.746;2022-09-17T04:15:15;11.50;99.90
13328;DHT22;6733;51.044;3.746;2022-09-17T04:17:41;11.50;99.90
13328;DHT22;6733;51.044;3.746;2022-09-17T04:20:07;11.50;99.90
13328;DHT22;6733;51.044;3.746;2022-09-17T04:22:33;11.50;99.90
13328;DHT22;6733;51.044;3.746;2022-09-17T04:24:59;11.60;99.90
13328;DHT22;6733;51.044;3.746;2022-09-17T04:27:26;11.50;99.90
13328;DHT22;6733;51.044;3.746;2022-09-17T04:29:52;11.50;99.90
13328;DHT22;6733;51.044;3.746;2022-09-17T04:32:18;11.40;99.90
13328;DHT22;6733;51.044;3.746;2022-09-17T04:34:44;11.40;99.90
13328;DHT22;6733;51.044;3.746;2022-09-17T04:37:10;11.50;99.90
13328;DHT22;6733;51.044;3.746;2022-09-17T04:39:36;11.50;99.90
13328;DHT22;6733;51.044;3.746;2022-09-17T04:42:03;11.50;99.90
13328;DHT22;6733;51.044;3.746;2022-09-17T04:44:29;11.50;99.90
13328;DHT22;6733;51.044;3.746;2022-09-17T04:46:55;11.50;99.90
13328;DHT22;6733;51.044;3.746;2022-09-17T04:49:21;11.50;99.90
13328;DHT22;6733;51.044;3.746;2022-09-17T04:51:47;11.60;99.90
13328;DHT22;6733;51.044;3.746;2022-09-17T04:54:14;11.50;99.90
13328;DHT22;6733;51.044;3.746;2022-09-17T04:56:40;11.40;99.90
13328;DHT22;6733;51.044;3.746;2022-09-17T04:59:06;11.40;99.90
13328;DHT22;6733;51.044;3.746;2022-09-17T05:01:32;11.30;99.90
13328;DHT22;6733;51.044;3.746;2022-09-17T05:03:58;11.10;99.90
13328;DHT22;6733;51.044;3.746;2022-09-17T05:06:24;11.10;99.90
13328;DHT22;6733;51.044;3.746;2022-09-17T05:08:50;11.00;99.90
13328;DHT22;6733;51.044;3.746;2022-09-17T05:11:16;11.10;99.90
13328;DHT22;6733;51.044;3.746;2022-09-17T05:13:43;11.10;99.90
13328;DHT22;6733;51.044;3.746;2022-09-17T05:16:09;11.10;99.90
13328;DHT22;6733;51.044;3.746;2022-09-17T05:18:35;11.20;99.90
13328;DHT22;6733;51.044;3.746;2022-09-17T05:21:01;11.20;99.90
13328;DHT22;6733;51.044;3.746;2022-09-17T05:23:27;11.20;99.90
13328;DHT22;6733;51.044;3.746;2022-09-17T05:25:57;11.20;99.90
13328;DHT22;6733;51.044;3.746;2022-09-17T05:28:24;11.20;99.90
13328;DHT22;6733;51.044;3.746;2022-09-17T05:30:50;11.20;99.90
13328;DHT22;6733;51.044;3.746;2022-09-17T05:33:16;11.20;99.90
13328;DHT22;6733;51.044;3.746;2022-09-17T05:35:42;11.30;99.90
13328;DHT22;6733;51.044;3.746;2022-09-17T05:38:09;11.40;99.90
13328;DHT22;6733;51.044;3.746;2022-09-17T05:40:35;11.30;99.90
13328;DHT22;6733;51.044;3.746;2022-09-17T05:43:04;11.40;99.90
13328;DHT22;6733;51.044;3.746;2022-09-17T05:45:33;11.40;99.90
13328;DHT22;6733;51.044;3.746;2022-09-17T05:48:00;11.50;99.90
13328;DHT22;6733;51.044;3.746;2022-09-17T05:50:28;11.60;99.90
13328;DHT22;6733;51.044;3.746;2022-09-17T05:52:54;11.60;99.90
13328;DHT22;6733;51.044;3.746;2022-09-17T05:55:21;11.70;99.90
13328;DHT22;6733;51.044;3.746;2022-09-17T05:57:49;11.70;99.90
13328;DHT22;6733;51.044;3.746;2022-09-17T06:00:16;11.70;99.90
13328;DHT22;6733;51.044;3.746;2022-09-17T06:02:42;11.60;99.90
13328;DHT22;6733;51.044;3.746;2022-09-17T06:05:08;11.50;99.90
13328;DHT22;6733;51.044;3.746;2022-09-17T06:07:36;11.60;99.90
13328;DHT22;6733;51.044;3.746;2022-09-17T06:10:04;11.50;99.90
13328;DHT22;6733;51.044;3.746;2022-09-17T06:12:30;11.50;99.90
13328;DHT22;6733;51.044;3.746;2022-09-17T06:14:56;11.50;99.90
13328;DHT22;6733;51.044;3.746;2022-09-17T06:17:22;11.50;99.90
13328;DHT22;6733;51.044;3.746;2022-09-17T06:19:48;11.50;99.90
13328;DHT22;6733;51.044;3.746;2022-09-17T06:22:18;11.50;99.90
13328;DHT22;6733;51.044;3.746;2022-09-17T06:24:45;11.50;99.90
13328;DHT22;6733;51.044;3.746;2022-09-17T06:27:11;11.50;99.90
13328;DHT22;6733;51.044;3.746;2022-09-17T06:29:37;11.50;99.90
13328;DHT22;6733;51.044;3.746;2022-09-17T06:32:03;11.60;99.90
13328;DHT22;6733;51.044;3.746;2022-09-17T06:34:29;11.50;99.90
13328;DHT22;6733;51.044;3.746;2022-09-17T06:36:55;11.60;99.90
13328;DHT22;6733;51.044;3.746;2022-09-17T06:39:21;11.60;99.90
13328;DHT22;6733;51.044;3.746;2022-09-17T06:41:49;11.80;99.90
13328;DHT22;6733;51.044;3.746;2022-09-17T06:44:15;11.80;99.90
13328;DHT22;6733;51.044;3.746;2022-09-17T06:46:41;11.80;99.90
13328;DHT22;6733;51.044;3.746;2022-09-17T06:49:09;11.90;99.90
13328;DHT22;6733;51.044;3.746;2022-09-17T06:51:35;11.90;99.90
13328;DHT22;6733;51.044;3.746;2022-09-17T06:54:01;12.00;99.90
13328;DHT22;6733;51.044;3.746;2022-09-17T06:56:28;12.00;99.90
13328;DHT22;6733;51.044;3.746;2022-09-17T06:58:54;12.00;99.90
13328;DHT22;6733;51.044;3.746;2022-09-17T07:01:20;12.00;99.90
13328;DHT22;6733;51.044;3.746;2022-09-17T07:03:46;12.10;99.90
13328;DHT22;6733;51.044;3.746;2022-09-17T07:06:14;12.00;99.90
13328;DHT22;6733;51.044;3.746;2022-09-17T07:08:40;12.00;99.90
13328;DHT22;6733;51.044;3.746;2022-09-17T07:11:07;12.00;99.90
13328;DHT22;6733;51.044;3.746;2022-09-17T07:13:33;12.00;99.90
13328;DHT22;6733;51.044;3.746;2022-09-17T07:16:01;12.00;99.90
13328;DHT22;6733;51.044;3.746;2022-09-17T07:18:27;12.20;99.90
13328;DHT22;6733;51.044;3.746;2022-09-17T07:20:59;12.20;99.90
13328;DHT22;6733;51.044;3.746;2022-09-17T07:23:28;12.30;99.90
13328;DHT22;6733;51.044;3.746;2022-09-17T07:25:57;12.40;99.90
13328;DHT22;6733;51.044;3.746;2022-09-17T07:28:24;12.50;99.90
13328;DHT22;6733;51.044;3.746;2022-09-17T07:30:51;12.30;99.90
13328;DHT22;6733;51.044;3.746;2022-09-17T07:33:19;12.20;99.90
13328;DHT22;6733;51.044;3.746;2022-09-17T07:35:55;12.20;99.90
13328;DHT22;6733;51.044;3.746;2022-09-17T07:38:22;12.00;99.90
13328;DHT22;6733;51.044;3.746;2022-09-17T07:41:13;12.00;99.90
13328;DHT22;6733;51.044;3.746;2022-09-17T07:43:40;11.90;99.90
13328;DHT22;6733;51.044;3.746;2022-09-17T07:46:07;12.00;99.90
13328;DHT22;6733;51.044;3.746;2022-09-17T07:48:34;12.00;99.90
13328;DHT22;6733;51.044;3.746;2022-09-17T07:51:00;12.10;99.90
13328;DHT22;6733;51.044;3.746;2022-09-17T07:53:27;12.20;99.90
13328;DHT22;6733;51.044;3.746;2022-09-17T07:55:57;12.40;99.90
13328;DHT22;6733;51.044;3.746;2022-09-17T07:58:32;12.70;99.90
13328;DHT22;6733;51.044;3.746;2022-09-17T08:01:03;12.90;99.90
13328;DHT22;6733;51.044;3.746;2022-09-17T08:03:30;13.20;99.90
13328;DHT22;6733;51.044;3.746;2022-09-17T08:06:03;13.50;99.90
13328;DHT22;6733;51.044;3.746;2022-09-17T08:08:31;13.50;99.90
13328;DHT22;6733;51.044;3.746;2022-09-17T08:11:02;13.30;99.90
13328;DHT22;6733;51.044;3.746;2022-09-17T08:13:29;13.10;99.90
13328;DHT22;6733;51.044;3.746;2022-09-17T08:16:04;13.20;99.90
13328;DHT22;6733;51.044;3.746;2022-09-17T08:18:31;13.20;99.90
13328;DHT22;6733;51.044;3.746;2022-09-17T08:20:58;13.20;99.90
13328;DHT22;6733;51.044;3.746;2022-09-17T08:23:25;13.30;99.90
13328;DHT22;6733;51.044;3.746;2022-09-17T08:25:53;13.50;99.90
13328;DHT22;6733;51.044;3.746;2022-09-17T08:28:20;13.80;99.90
13328;DHT22;6733;51.044;3.746;2022-09-17T08:30:47;14.10;99.90
13328;DHT22;6733;51.044;3.746;2022-09-17T08:33:14;14.00;99.90
13328;DHT22;6733;51.044;3.746;2022-09-17T08:35:40;14.30;99.90
13328;DHT22;6733;51.044;3.746;2022-09-17T08:38:06;14.30;99.90
13328;DHT22;6733;51.044;3.746;2022-09-17T08:40:39;14.40;99.90
13328;DHT22;6733;51.044;3.746;2022-09-17T08:43:13;14.60;99.90
13328;DHT22;6733;51.044;3.746;2022-09-17T08:45:41;14.60;99.90
13328;DHT22;6733;51.044;3.746;2022-09-17T08:48:10;14.70;99.90
13328;DHT22;6733;51.044;3.746;2022-09-17T08:50:39;14.80;99.90
13328;DHT22;6733;51.044;3.746;2022-09-17T08:55:54;14.70;99.90
13328;DHT22;6733;51.044;3.746;2022-09-17T08:58:32;14.50;99.90
13328;DHT22;6733;51.044;3.746;2022-09-17T09:06:47;13.50;99.90
13328;DHT22;6733;51.044;3.746;2022-09-17T09:09:17;13.20;99.90
13328;DHT22;6733;51.044;3.746;2022-09-17T09:11:45;13.10;99.90
13328;DHT22;6733;51.044;3.746;2022-09-17T09:14:27;12.90;99.90
13328;DHT22;6733;51.044;3.746;2022-09-17T09:16:55;12.50;99.90
13328;DHT22;6733;51.044;3.746;2022-09-17T09:19:23;12.30;99.90
13328;DHT22;6733;51.044;3.746;2022-09-17T09:33:32;12.10;99.90
13328;DHT22;6733;51.044;3.746;2022-09-17T09:36:00;12.00;99.90
13328;DHT22;6733;51.044;3.746;2022-09-17T09:41:44;12.00;99.90
13328;DHT22;6733;51.044;3.746;2022-09-17T09:44:14;12.00;99.90
13328;DHT22;6733;51.044;3.746;2022-09-17T09:57:44;11.90;99.90
13328;DHT22;6733;51.044;3.746;2022-09-17T10:00:38;12.10;99.90
13328;DHT22;6733;51.044;3.746;2022-09-17T10:03:26;12.20;99.90
13328;DHT22;6733;51.044;3.746;2022-09-17T10:06:01;12.40;99.90
13328;DHT22;6733;51.044;3.746;2022-09-17T10:08:38;12.60;99.90
13328;DHT22;6733;51.044;3.746;2022-09-17T10:11:18;12.80;99.90
13328;DHT22;6733;51.044;3.746;2022-09-17T10:13:45;12.90;99.90
13328;DHT22;6733;51.044;3.746;2022-09-17T10:16:23;12.90;99.90
13328;DHT22;6733;51.044;3.746;2022-09-17T10:21:40;12.90;99.90
13328;DHT22;6733;51.044;3.746;2022-09-17T10:24:30;12.80;99.90
13328;DHT22;6733;51.044;3.746;2022-09-17T10:27:06;12.70;99.90
13328;DHT22;6733;51.044;3.746;2022-09-17T10:29:45;12.60;99.90
13328;DHT22;6733;51.044;3.746;2022-09-17T10:32:16;12.80;99.90
13328;DHT22;6733;51.044;3.746;2022-09-17T10:35:23;12.90;99.90
13328;DHT22;6733;51.044;3.746;2022-09-17T10:37:53;13.30;99.90
13328;DHT22;6733;51.044;3.746;2022-09-17T10:42:45;13.40;99.90
13328;DHT22;6733;51.044;3.746;2022-09-17T10:45:24;13.20;99.90
13328;DHT22;6733;51.044;3.746;2022-09-17T10:47:51;12.90;99.90
13328;DHT22;6733;51.044;3.746;2022-09-17T10:50:30;12.80;99.90
13328;DHT22;6733;51.044;3.746;2022-09-17T10:52:59;12.80;99.90
13328;DHT22;6733;51.044;3.746;2022-09-17T11:03:43;13.20;99.90
13328;DHT22;6733;51.044;3.746;2022-09-17T11:06:37;13.20;99.90
13328;DHT22;6733;51.044;3.746;2022-09-17T11:12:27;14.20;99.90
13328;DHT22;6733;51.044;3.746;2022-09-17T11:23:48;15.60;99.90
13328;DHT22;6733;51.044;3.746;2022-09-17T11:26:44;16.00;99.90
13328;DHT22;6733;51.044;3.746;2022-09-17T11:29:29;16.20;99.90
13328;DHT22;6733;51.044;3.746;2022-09-17T11:34:51;15.30;99.90
13328;DHT22;6733;51.044;3.746;2022-09-17T11:37:26;15.00;99.90
13328;DHT22;6733;51.044;3.746;2022-09-17T11:40:05;15.10;99.90
13328;DHT22;6733;51.044;3.746;2022-09-17T11:45:21;15.90;99.90
13328;DHT22;6733;51.044;3.746;2022-09-17T11:48:06;16.20;99.90
13328;DHT22;6733;51.044;3.746;2022-09-17T11:50:51;16.00;99.90
13328;DHT22;6733;51.044;3.746;2022-09-17T11:53:56;16.10;99.90
13328;DHT22;6733;51.044;3.746;2022-09-17T12:01:44;16.00;99.90
13328;DHT22;6733;51.044;3.746;2022-09-17T12:10:30;15.40;99.90
13328;DHT22;6733;51.044;3.746;2022-09-17T12:13:09;15.30;99.90
13328;DHT22;6733;51.044;3.746;2022-09-17T12:15:41;15.60;99.90
13328;DHT22;6733;51.044;3.746;2022-09-17T12:18:44;16.10;99.90
13328;DHT22;6733;51.044;3.746;2022-09-17T12:21:03;16.40;99.90
13328;DHT22;6733;51.044;3.746;2022-09-17T12:23:38;16.20;99.90
13328;DHT22;6733;51.044;3.746;2022-09-17T12:26:28;16.40;99.90
13328;DHT22;6733;51.044;3.746;2022-09-17T12:29:29;16.70;99.90
13328;DHT22;6733;51.044;3.746;2022-09-17T12:32:08;16.80;99.90
13328;DHT22;6733;51.044;3.746;2022-09-17T12:37:36;16.90;99.90
13328;DHT22;6733;51.044;3.746;2022-09-17T12:40:31;17.00;99.90
13328;DHT22;6733;51.044;3.746;2022-09-17T12:43:31;17.30;99.90
13328;DHT22;6733;51.044;3.746;2022-09-17T12:46:17;17.10;99.90
13328;DHT22;6733;51.044;3.746;2022-09-17T12:57:47;17.80;99.90
13328;DHT22;6733;51.044;3.746;2022-09-17T13:00:16;16.60;99.90
13328;DHT22;6733;51.044;3.746;2022-09-17T13:02:49;14.50;99.90
13328;DHT22;6733;51.044;3.746;2022-09-17T13:13:40;14.00;99.90
13328;DHT22;6733;51.044;3.746;2022-09-17T13:16:20;14.60;99.90
13328;DHT22;6733;51.044;3.746;2022-09-17T13:24:19;15.60;99.90
13328;DHT22;6733;51.044;3.746;2022-09-17T13:26:47;15.60;99.90
13328;DHT22;6733;51.044;3.746;2022-09-17T13:32:47;14.90;99.90
13328;DHT22;6733;51.044;3.746;2022-09-17T13:40:28;14.90;99.90
13328;DHT22;6733;51.044;3.746;2022-09-17T13:43:16;14.60;99.90
13328;DHT22;6733;51.044;3.746;2022-09-17T13:48:27;14.50;99.90
13328;DHT22;6733;51.044;3.746;2022-09-17T13:50:53;14.80;99.90
13328;DHT22;6733;51.044;3.746;2022-09-17T13:53:22;14.90;99.90
13328;DHT22;6733;51.044;3.746;2022-09-17T13:55:52;15.10;99.90
13328;DHT22;6733;51.044;3.746;2022-09-17T14:19:25;13.90;99.90
13328;DHT22;6733;51.044;3.746;2022-09-17T14:22:01;13.60;99.90
13328;DHT22;6733;51.044;3.746;2022-09-17T14:35:38;13.30;99.90
13328;DHT22;6733;51.044;3.746;2022-09-17T14:40:35;13.70;99.90
13328;DHT22;6733;51.044;3.746;2022-09-17T14:43:16;14.30;99.90
13328;DHT22;6733;51.044;3.746;2022-09-17T14:45:44;14.70;99.90
13328;DHT22;6733;51.044;3.746;2022-09-17T14:48:27;14.50;99.90
13328;DHT22;6733;51.044;3.746;2022-09-17T14:56:32;14.10;99.90
13328;DHT22;6733;51.044;3.746;2022-09-17T14:59:00;14.20;99.90
13328;DHT22;6733;51.044;3.746;2022-09-17T15:01:28;14.00;99.90
13328;DHT22;6733;51.044;3.746;2022-09-17T15:04:23;14.00;99.90
13328;DHT22;6733;51.044;3.746;2022-09-17T15:06:50;13.70;99.90
13328;DHT22;6733;51.044;3.746;2022-09-17T15:09:24;13.50;99.90
13328;DHT22;6733;51.044;3.746;2022-09-17T15:12:00;13.20;99.90
13328;DHT22;6733;51.044;3.746;2022-09-17T15:14:28;13.20;99.90
13328;DHT22;6733;51.044;3.746;2022-09-17T15:16:58;13.30;99.90
13328;DHT22;6733;51.044;3.746;2022-09-17T15:22:01;13.30;99.90
13328;DHT22;6733;51.044;3.746;2022-09-17T15:27:15;13.10;99.90
13328;DHT22;6733;51.044;3.746;2022-09-17T15:29:46;13.00;99.90
13328;DHT22;6733;51.044;3.746;2022-09-17T15:32:13;12.80;99.90
13328;DHT22;6733;51.044;3.746;2022-09-17T15:34:40;12.70;99.90
13328;DHT22;6733;51.044;3.746;2022-09-17T15:39:47;12.70;99.90
13328;DHT22;6733;51.044;3.746;2022-09-17T15:42:29;12.80;99.90
13328;DHT22;6733;51.044;3.746;2022-09-17T15:45:21;12.80;99.90
13328;DHT22;6733;51.044;3.746;2022-09-17T15:50:21;13.00;99.90
13328;DHT22;6733;51.044;3.746;2022-09-17T15:52:49;13.00;99.90
13328;DHT22;6733;51.044;3.746;2022-09-17T15:55:39;13.10;99.90
13328;DHT22;6733;51.044;3.746;2022-09-17T15:58:25;13.00;99.90
13328;DHT22;6733;51.044;3.746;2022-09-17T16:08:53;12.90;99.90
13328;DHT22;6733;51.044;3.746;2022-09-17T16:11:22;13.10;99.90
13328;DHT22;6733;51.044;3.746;2022-09-17T16:13:50;13.00;99.90
13328;DHT22;6733;51.044;3.746;2022-09-17T16:16:18;13.10;99.90
13328;DHT22;6733;51.044;3.746;2022-09-17T16:18:45;13.10;99.90
13328;DHT22;6733;51.044;3.746;2022-09-17T16:21:12;13.10;99.90
13328;DHT22;6733;51.044;3.746;2022-09-17T16:23:39;13.20;99.90
13328;DHT22;6733;51.044;3.746;2022-09-17T16:26:09;13.40;99.90
13328;DHT22;6733;51.044;3.746;2022-09-17T16:28:37;13.60;99.90
13328;DHT22;6733;51.044;3.746;2022-09-17T16:31:04;13.70;99.90
13328;DHT22;6733;51.044;3.746;2022-09-17T16:33:31;13.80;99.90
13328;DHT22;6733;51.044;3.746;2022-09-17T16:35:58;13.80;99.90
13328;DHT22;6733;51.044;3.746;2022-09-17T16:38:24;14.00;99.90
13328;DHT22;6733;51.044;3.746;2022-09-17T16:40:51;14.00;99.90
13328;DHT22;6733;51.044;3.746;2022-09-17T16:43:17;13.90;99.90
13328;DHT22;6733;51.044;3.746;2022-09-17T16:45:57;13.80;99.90
13328;DHT22;6733;51.044;3.746;2022-09-17T16:48:23;13.70;99.90
13328;DHT22;6733;51.044;3.746;2022-09-17T16:50:49;13.70;99.90
13328;DHT22;6733;51.044;3.746;2022-09-17T16:53:15;13.80;99.90
13328;DHT22;6733;51.044;3.746;2022-09-17T16:55:41;13.70;99.90
13328;DHT22;6733;51.044;3.746;2022-09-17T16:58:08;13.60;99.90
13328;DHT22;6733;51.044;3.746;2022-09-17T17:00:34;13.60;99.90
13328;DHT22;6733;51.044;3.746;2022-09-17T17:03:03;13.60;99.90
13328;DHT22;6733;51.044;3.746;2022-09-17T17:05:29;13.40;99.90
13328;DHT22;6733;51.044;3.746;2022-09-17T17:07:56;13.40;99.90
13328;DHT22;6733;51.044;3.746;2022-09-17T17:10:23;13.30;99.90
13328;DHT22;6733;51.044;3.746;2022-09-17T17:12:51;13.20;99.90
13328;DHT22;6733;51.044;3.746;2022-09-17T17:15:17;13.20;99.90
13328;DHT22;6733;51.044;3.746;2022-09-17T17:17:44;13.20;99.90
13328;DHT22;6733;51.044;3.746;2022-09-17T17:20:10;13.20;99.90
13328;DHT22;6733;51.044;3.746;2022-09-17T17:22:40;13.20;99.90
13328;DHT22;6733;51.044;3.746;2022-09-17T17:25:09;13.00;99.90
13328;DHT22;6733;51.044;3.746;2022-09-17T17:27:35;13.00;99.90
13328;DHT22;6733;51.044;3.746;2022-09-17T17:30:03;13.00;99.90
13328;DHT22;6733;51.044;3.746;2022-09-17T17:32:32;13.00;99.90
13328;DHT22;6733;51.044;3.746;2022-09-17T17:34:58;12.90;99.90
13328;DHT22;6733;51.044;3.746;2022-09-17T17:37:24;12.80;99.90
13328;DHT22;6733;51.044;3.746;2022-09-17T17:39:51;12.80;99.90
13328;DHT22;6733;51.044;3.746;2022-09-17T17:42:19;12.80;99.90
13328;DHT22;6733;51.044;3.746;2022-09-17T17:44:46;12.90;99.90
13328;DHT22;6733;51.044;3.746;2022-09-17T17:47:13;12.80;99.90
13328;DHT22;6733;51.044;3.746;2022-09-17T17:49:39;12.80;99.90
13328;DHT22;6733;51.044;3.746;2022-09-17T17:52:05;12.80;99.90
13328;DHT22;6733;51.044;3.746;2022-09-17T17:54:31;12.80;99.90
13328;DHT22;6733;51.044;3.746;2022-09-17T17:56:57;12.70;99.90
13328;DHT22;6733;51.044;3.746;2022-09-17T17:59:24;12.70;99.90
13328;DHT22;6733;51.044;3.746;2022-09-17T18:01:50;12.60;99.90
13328;DHT22;6733;51.044;3.746;2022-09-17T18:04:16;12.60;99.90
13328;DHT22;6733;51.044;3.746;2022-09-17T18:06:42;12.60;99.90
13328;DHT22;6733;51.044;3.746;2022-09-17T18:09:08;12.60;99.90
13328;DHT22;6733;51.044;3.746;2022-09-17T18:11:35;12.60;99.90
13328;DHT22;6733;51.044;3.746;2022-09-17T18:14:02;12.60;99.90
13328;DHT22;6733;51.044;3.746;2022-09-17T18:16:28;12.60;99.90
13328;DHT22;6733;51.044;3.746;2022-09-17T18:18:55;12.70;99.90
13328;DHT22;6733;51.044;3.746;2022-09-17T18:21:23;12.70;99.90
13328;DHT22;6733;51.044;3.746;2022-09-17T18:23:50;12.70;99.90
13328;DHT22;6733;51.044;3.746;2022-09-17T18:26:22;12.70;99.90
13328;DHT22;6733;51.044;3.746;2022-09-17T18:28:50;12.70;99.90
13328;DHT22;6733;51.044;3.746;2022-09-17T18:33:53;12.70;99.90
13328;DHT22;6733;51.044;3.746;2022-09-17T18:36:20;12.60;99.90
13328;DHT22;6733;51.044;3.746;2022-09-17T18:38:46;12.60;99.90
13328;DHT22;6733;51.044;3.746;2022-09-17T18:41:12;12.70;99.90
13328;DHT22;6733;51.044;3.746;2022-09-17T18:43:38;12.70;99.90
13328;DHT22;6733;51.044;3.746;2022-09-17T18:46:04;12.70;99.90
13328;DHT22;6733;51.044;3.746;2022-09-17T18:48:31;12.80;99.90
13328;DHT22;6733;51.044;3.746;2022-09-17T18:51:05;12.70;99.90
13328;DHT22;6733;51.044;3.746;2022-09-17T18:53:34;12.70;99.90
13328;DHT22;6733;51.044;3.746;2022-09-17T18:56:09;12.70;99.90
13328;DHT22;6733;51.044;3.746;2022-09-17T18:58:35;12.60;99.90
13328;DHT22;6733;51.044;3.746;2022-09-17T19:01:05;12.60;99.90
13328;DHT22;6733;51.044;3.746;2022-09-17T19:03:32;12.50;99.90
13328;DHT22;6733;51.044;3.746;2022-09-17T19:06:00;12.50;99.90
13328;DHT22;6733;51.044;3.746;2022-09-17T19:08:26;12.50;99.90
13328;DHT22;6733;51.044;3.746;2022-09-17T19:10:52;12.50;99.90
13328;DHT22;6733;51.044;3.746;2022-09-17T19:13:19;12.50;99.90
13328;DHT22;6733;51.044;3.746;2022-09-17T19:15:45;12.60;99.90
13328;DHT22;6733;51.044;3.746;2022-09-17T19:18:12;12.60;99.90
13328;DHT22;6733;51.044;3.746;2022-09-17T19:20:38;12.70;99.90
13328;DHT22;6733;51.044;3.746;2022-09-17T19:23:05;12.70;99.90
13328;DHT22;6733;51.044;3.746;2022-09-17T19:25:34;12.70;99.90
13328;DHT22;6733;51.044;3.746;2022-09-17T19:28:01;12.70;99.90
13328;DHT22;6733;51.044;3.746;2022-09-17T19:30:27;12.70;99.90
13328;DHT22;6733;51.044;3.746;2022-09-17T19:32:58;12.70;99.90
13328;DHT22;6733;51.044;3.746;2022-09-17T19:35:25;12.70;99.90
13328;DHT22;6733;51.044;3.746;2022-09-17T19:37:51;12.80;99.90
13328;DHT22;6733;51.044;3.746;2022-09-17T19:40:18;12.70;99.90
13328;DHT22;6733;51.044;3.746;2022-09-17T19:42:51;12.70;99.90